createdAt,value
2023-05-14T00:01:58.865Z,18.38
2023-05-14T00:04:26.468Z,18.17
2023-05-14T00:06:53.964Z,21.63
2023-05-14T00:09:21.491Z,20.08
2023-05-14T00:11:49.192Z,20.48
2023-05-14T00:14:16.743Z,23.33
2023-05-14T00:16:44.365Z,18.52
2023-05-14T00:19:12.017Z,21.55
2023-05-14T00:21:39.589Z,20.50
2023-05-14T00:24:07.274Z,20.45
2023-05-14T00:26:34.848Z,18.33
2023-05-14T00:29:02.310Z,25.20
2023-05-14T00:31:29.847Z,23.05
2023-05-14T00:33:57.452Z,30.13
2023-05-14T00:36:24.956Z,26.05
2023-05-14T00:38:52.586Z,25.63
2023-05-14T00:41:20.092Z,19.92
2023-05-14T00:43:47.605Z,20.80
2023-05-14T00:46:15.799Z,26.48
2023-05-14T00:48:43.411Z,22.80
2023-05-14T00:51:11.054Z,23.33
2023-05-14T00:53:38.752Z,26.15
2023-05-14T00:56:06.983Z,19.80
2023-05-14T00:58:34.523Z,23.25
2023-05-14T01:01:02.097Z,22.48
2023-05-14T01:03:31.811Z,23.48
2023-05-14T01:06:14.510Z,26.35
2023-05-14T01:08:51.213Z,23.80
2023-05-14T01:11:25.769Z,23.38
2023-05-14T01:14:09.975Z,23.40
2023-05-14T01:16:39.282Z,23.83
2023-05-14T01:19:11.663Z,21.92
2023-05-14T01:21:44.443Z,20.60
2023-05-14T01:24:11.920Z,23.02
2023-05-14T01:26:39.468Z,25.40
2023-05-14T01:29:10.032Z,23.85
2023-05-14T01:31:41.727Z,21.08
2023-05-14T01:34:10.078Z,23.45
2023-05-14T01:36:38.108Z,24.55
2023-05-14T01:39:09.449Z,25.02
2023-05-14T01:41:39.332Z,23.90
2023-05-14T01:44:07.123Z,24.92
2023-05-14T01:46:34.728Z,25.75
2023-05-14T01:49:02.263Z,19.75
2023-05-14T01:51:29.935Z,24.45
2023-05-14T01:53:57.551Z,25.52
2023-05-14T01:56:25.554Z,23.60
2023-05-14T01:58:53.308Z,25.13
2023-05-14T02:01:20.828Z,29.02
2023-05-14T02:03:48.452Z,23.70
2023-05-14T02:06:15.929Z,27.15
2023-05-14T02:08:43.474Z,28.13
2023-05-14T02:11:10.951Z,20.02
2023-05-14T02:13:38.502Z,23.67
2023-05-14T02:16:06.635Z,26.83
2023-05-14T02:18:34.313Z,21.48
2023-05-14T02:21:01.999Z,26.77
2023-05-14T02:23:40.481Z,20.90
2023-05-14T02:26:10.779Z,27.02
2023-05-14T02:28:38.436Z,21.77
2023-05-14T02:31:06.063Z,29.67
2023-05-14T02:33:33.811Z,25.95
2023-05-14T02:36:01.316Z,28.90
2023-05-14T02:38:28.797Z,23.15
2023-05-14T02:40:56.265Z,26.17
2023-05-14T02:43:23.782Z,29.42
2023-05-14T02:45:51.291Z,19.92
2023-05-14T02:48:18.768Z,20.23
2023-05-14T02:50:46.903Z,20.02
2023-05-14T02:53:14.387Z,25.55
2023-05-14T02:55:41.901Z,21.08
2023-05-14T02:58:10.298Z,26.45
2023-05-14T03:00:37.962Z,25.30
2023-05-14T03:03:06.164Z,26.13
2023-05-14T03:05:34.194Z,25.50
2023-05-14T03:08:01.910Z,22.98
2023-05-14T03:10:29.403Z,19.45
2023-05-14T03:12:56.905Z,22.23
2023-05-14T03:15:24.438Z,25.58
2023-05-14T03:17:52.074Z,26.40
2023-05-14T03:20:19.697Z,25.75
2023-05-14T03:22:47.322Z,22.05
2023-05-14T03:25:14.864Z,25.13
2023-05-14T03:27:42.409Z,28.50
2023-05-14T03:30:11.747Z,25.15
2023-05-14T03:32:39.316Z,30.40
2023-05-14T03:35:07.951Z,31.17
2023-05-14T03:37:35.464Z,25.77
2023-05-14T03:40:03.003Z,23.60
2023-05-14T03:42:30.544Z,31.33
2023-05-14T03:44:58.135Z,28.13
2023-05-14T03:47:25.697Z,24.60
2023-05-14T03:49:53.578Z,22.38
2023-05-14T03:52:21.029Z,27.52
2023-05-14T03:54:48.584Z,25.50
2023-05-14T03:57:16.124Z,21.52
2023-05-14T03:59:43.592Z,23.75
2023-05-14T04:02:11.129Z,20.88
2023-05-14T04:04:38.691Z,23.52
2023-05-14T04:07:06.218Z,23.52
2023-05-14T04:09:33.777Z,24.83
2023-05-14T04:12:01.370Z,26.88
2023-05-14T04:14:28.888Z,21.30
2023-05-14T04:16:56.385Z,24.80
2023-05-14T04:19:23.845Z,18.40
2023-05-14T04:21:51.460Z,22.45
2023-05-14T04:24:19.056Z,31.88
2023-05-14T04:26:46.618Z,19.02
2023-05-14T04:29:14.080Z,23.60
2023-05-14T04:31:42.107Z,26.25
2023-05-14T04:34:09.825Z,25.13
2023-05-14T04:36:37.323Z,26.83
2023-05-14T04:39:06.022Z,32.58
2023-05-14T04:41:33.957Z,20.27
2023-05-14T04:44:02.393Z,21.27
2023-05-14T04:46:29.973Z,22.38
2023-05-14T04:48:57.702Z,22.52
2023-05-14T04:51:26.376Z,19.45
2023-05-14T04:53:53.949Z,23.50
2023-05-14T04:56:21.584Z,20.23
2023-05-14T04:58:49.263Z,23.35
2023-05-14T05:01:16.905Z,19.75
2023-05-14T05:03:44.585Z,22.20
2023-05-14T05:06:12.315Z,24.25
2023-05-14T05:08:39.841Z,18.63
2023-05-14T05:11:07.299Z,23.80
2023-05-14T05:13:34.801Z,15.93
2023-05-14T05:16:02.543Z,22.77
2023-05-14T05:18:30.290Z,20.55
2023-05-14T05:20:57.867Z,23.17
2023-05-14T05:23:25.456Z,15.98
2023-05-14T05:25:53.078Z,19.90
2023-05-14T05:28:20.763Z,19.38
2023-05-14T05:30:48.451Z,18.45
2023-05-14T05:33:16.020Z,19.15
2023-05-14T05:35:44.558Z,14.52
2023-05-14T05:38:12.065Z,15.95
2023-05-14T05:40:39.668Z,15.10
2023-05-14T05:43:07.190Z,21.35
2023-05-14T05:45:34.720Z,18.52
2023-05-14T05:48:02.277Z,16.70
2023-05-14T05:50:29.797Z,17.67
2023-05-14T05:52:59.159Z,19.98
2023-05-14T05:55:26.923Z,18.25
2023-05-14T05:57:54.519Z,14.85
2023-05-14T06:02:50.107Z,23.35
2023-05-14T06:05:18.140Z,16.90
2023-05-14T06:07:45.733Z,16.05
2023-05-14T06:10:13.172Z,15.38
2023-05-14T06:12:40.850Z,21.02
2023-05-14T06:15:08.830Z,15.13
2023-05-14T06:17:36.362Z,17.85
2023-05-14T06:20:05.510Z,13.52
2023-05-14T06:22:33.040Z,17.25
2023-05-14T06:25:00.562Z,13.65
2023-05-14T06:27:28.137Z,15.15
2023-05-14T06:29:55.888Z,17.08
2023-05-14T06:32:23.670Z,16.27
2023-05-14T06:34:51.243Z,12.30
2023-05-14T06:37:18.717Z,13.45
2023-05-14T06:39:50.159Z,12.68
2023-05-14T06:42:18.974Z,14.02
2023-05-14T06:44:46.824Z,17.30
2023-05-14T06:47:14.404Z,21.02
2023-05-14T06:49:41.908Z,13.52
2023-05-14T06:52:09.476Z,13.82
2023-05-14T06:54:36.978Z,12.55
2023-05-14T06:57:04.723Z,12.98
2023-05-14T06:59:32.449Z,14.52
2023-05-14T07:02:00.014Z,13.77
2023-05-14T07:04:27.670Z,14.52
2023-05-14T07:06:55.179Z,11.43
2023-05-14T07:09:23.040Z,14.40
2023-05-14T07:11:50.498Z,13.73
2023-05-14T07:14:18.024Z,19.40
2023-05-14T07:16:46.896Z,10.98
2023-05-14T07:19:14.637Z,13.18
2023-05-14T07:21:42.370Z,13.40
2023-05-14T07:24:10.208Z,12.38
2023-05-14T07:26:37.859Z,9.70
2023-05-14T07:29:05.388Z,11.48
2023-05-14T07:31:33.284Z,14.77
2023-05-14T07:34:00.852Z,9.65
2023-05-14T07:36:28.447Z,11.32
2023-05-14T07:38:56.169Z,11.45
2023-05-14T07:41:23.689Z,12.00
2023-05-14T07:43:51.303Z,8.15
2023-05-14T07:46:19.451Z,9.55
2023-05-14T07:48:46.936Z,9.30
2023-05-14T07:51:14.457Z,10.75
2023-05-14T07:53:42.003Z,9.95
2023-05-14T07:56:09.496Z,13.60
2023-05-14T07:58:37.102Z,11.82
2023-05-14T08:01:07.206Z,17.02
2023-05-14T08:03:34.876Z,12.38
2023-05-14T08:06:02.487Z,13.60
2023-05-14T08:08:29.959Z,15.90
2023-05-14T08:10:57.453Z,9.05
2023-05-14T08:13:24.927Z,10.82
2023-05-14T08:15:52.590Z,8.93
2023-05-14T08:18:20.053Z,12.02
2023-05-14T08:20:48.307Z,10.40
2023-05-14T08:23:15.804Z,9.32
2023-05-14T08:25:43.397Z,10.85
2023-05-14T08:28:10.964Z,7.43
2023-05-14T08:30:38.559Z,7.38
2023-05-14T08:33:06.137Z,10.60
2023-05-14T08:35:33.626Z,6.15
2023-05-14T08:38:01.732Z,9.70
2023-05-14T08:40:29.468Z,7.20
2023-05-14T08:42:58.229Z,9.35
2023-05-14T08:45:33.822Z,6.80
2023-05-14T08:48:02.260Z,9.05
2023-05-14T08:50:31.253Z,11.43
2023-05-14T08:52:58.902Z,7.43
2023-05-14T08:55:28.169Z,9.43
2023-05-14T08:57:56.204Z,10.00
2023-05-14T09:00:24.981Z,5.22
2023-05-14T09:02:53.935Z,13.57
2023-05-14T09:05:22.090Z,10.18
2023-05-14T09:07:49.594Z,8.95
2023-05-14T09:10:18.482Z,9.98
2023-05-14T09:12:46.073Z,6.40
2023-05-14T09:15:13.978Z,9.15
2023-05-14T09:17:41.727Z,8.82
2023-05-14T09:20:10.487Z,6.40
2023-05-14T09:22:39.603Z,12.80
2023-05-14T09:25:12.213Z,8.63
2023-05-14T09:27:40.129Z,5.65
2023-05-14T09:30:12.076Z,12.02
2023-05-14T09:35:17.399Z,8.65
2023-05-14T09:37:50.176Z,10.35
2023-05-14T09:40:19.319Z,11.82
2023-05-14T09:42:48.237Z,11.05
2023-05-14T09:45:16.649Z,10.73
2023-05-14T09:47:45.146Z,9.65
2023-05-14T09:50:13.254Z,7.95
2023-05-14T09:52:41.083Z,5.03
2023-05-14T09:55:09.103Z,7.32
2023-05-14T09:57:37.201Z,5.22
2023-05-14T10:00:05.255Z,11.70
2023-05-14T10:02:41.142Z,8.38
2023-05-14T10:05:09.672Z,11.85
2023-05-14T10:07:43.882Z,6.47
2023-05-14T10:10:16.407Z,7.38
2023-05-14T10:12:47.363Z,5.82
2023-05-14T10:15:20.741Z,9.40
2023-05-14T10:17:55.711Z,9.82
2023-05-14T10:20:24.433Z,7.50
2023-05-14T10:22:52.487Z,10.50
2023-05-14T10:25:20.818Z,8.52
2023-05-14T10:27:48.763Z,11.00
2023-05-14T10:30:16.387Z,8.40
2023-05-14T10:32:44.252Z,8.40
2023-05-14T10:35:25.328Z,7.18
2023-05-14T10:37:52.876Z,5.88
2023-05-14T10:40:21.401Z,8.07
2023-05-14T10:42:49.898Z,9.90
2023-05-14T10:45:17.878Z,7.88
2023-05-14T10:47:47.550Z,9.82
2023-05-14T10:50:17.514Z,7.60
2023-05-14T10:52:46.712Z,5.18
2023-05-14T10:55:16.117Z,10.02
2023-05-14T10:57:46.409Z,9.68
2023-05-14T11:00:15.775Z,5.10
2023-05-14T11:02:45.768Z,5.90
2023-05-14T11:05:18.095Z,6.63
2023-05-14T11:07:48.717Z,8.75
2023-05-14T11:10:17.271Z,5.65
2023-05-14T11:12:47.731Z,3.88
2023-05-14T11:15:17.793Z,4.78
2023-05-14T11:17:47.166Z,4.85
2023-05-14T11:20:16.629Z,2.88
2023-05-14T11:22:45.941Z,8.55
2023-05-14T11:25:15.002Z,8.45
2023-05-14T11:27:44.826Z,9.77
2023-05-14T11:30:21.550Z,11.88
2023-05-14T11:32:50.334Z,7.00
2023-05-14T11:35:18.874Z,5.20
2023-05-14T11:37:52.564Z,7.90
2023-05-14T11:40:20.500Z,11.15
2023-05-14T11:42:48.006Z,13.05
2023-05-14T11:45:26.284Z,10.50
2023-05-14T11:47:54.571Z,6.43
2023-05-14T11:50:23.649Z,9.77
2023-05-14T11:52:51.601Z,6.57
2023-05-14T11:55:19.141Z,6.88
2023-05-14T11:57:46.838Z,8.18
2023-05-14T12:00:21.323Z,9.85
2023-05-14T12:02:50.190Z,4.00
2023-05-14T12:05:18.174Z,5.80
2023-05-14T12:07:46.507Z,7.85
2023-05-14T12:10:14.309Z,5.80
2023-05-14T12:12:41.860Z,8.75
2023-05-14T12:15:13.826Z,9.82
2023-05-14T12:17:41.551Z,5.20
2023-05-14T12:20:11.706Z,5.53
2023-05-14T12:22:39.898Z,6.00
2023-05-14T12:25:14.386Z,3.60
2023-05-14T12:27:45.431Z,4.60
2023-05-14T12:32:48.953Z,9.55
2023-05-14T12:35:16.654Z,9.35
2023-05-14T12:37:44.221Z,5.00
2023-05-14T12:40:12.156Z,4.20
2023-05-14T12:42:39.753Z,4.97
2023-05-14T12:45:08.532Z,7.03
2023-05-14T12:47:37.289Z,4.53
2023-05-14T12:50:05.947Z,5.88
2023-05-14T12:52:38.426Z,8.55
2023-05-14T12:55:07.621Z,5.78
2023-05-14T12:57:35.631Z,5.32
2023-05-14T13:00:06.376Z,6.10
2023-05-14T13:02:42.359Z,5.95
2023-05-14T13:05:11.490Z,6.72
2023-05-14T13:07:39.548Z,6.50
2023-05-14T13:10:07.535Z,8.02
2023-05-14T13:12:35.308Z,6.07
2023-05-14T13:15:02.987Z,7.38
2023-05-14T13:17:30.636Z,14.30
2023-05-14T13:19:58.272Z,4.47
2023-05-14T13:22:25.834Z,4.75
2023-05-14T13:24:53.344Z,5.57
2023-05-14T13:27:20.844Z,4.97
2023-05-14T13:29:48.388Z,8.82
2023-05-14T13:32:15.846Z,8.77
2023-05-14T13:34:44.013Z,6.47
2023-05-14T13:37:11.963Z,4.45
2023-05-14T13:39:41.066Z,3.88
2023-05-14T13:42:08.920Z,2.95
2023-05-14T13:44:36.829Z,9.13
2023-05-14T13:47:04.514Z,8.55
2023-05-14T13:49:32.019Z,6.68
2023-05-14T13:52:00.773Z,5.10
2023-05-14T13:54:28.279Z,6.00
2023-05-14T13:56:56.124Z,9.75
2023-05-14T13:59:23.964Z,6.38
2023-05-14T14:01:51.724Z,3.22
2023-05-14T14:04:19.971Z,3.08
2023-05-14T14:06:47.518Z,2.67
2023-05-14T14:09:15.131Z,2.85
2023-05-14T14:11:42.625Z,6.55
2023-05-14T14:14:10.090Z,2.85
2023-05-14T14:16:37.642Z,2.42
2023-05-14T14:19:05.510Z,5.05
2023-05-14T14:21:34.067Z,7.45
2023-05-14T14:24:01.924Z,3.83
2023-05-14T14:26:29.531Z,4.00
2023-05-14T14:28:57.182Z,2.05
2023-05-14T14:31:25.084Z,5.72
2023-05-14T14:33:52.706Z,7.75
2023-05-14T14:36:20.316Z,5.90
2023-05-14T14:38:47.923Z,3.70
2023-05-14T14:41:15.562Z,5.00
2023-05-14T14:43:43.536Z,6.38
2023-05-14T14:46:11.258Z,2.30
2023-05-14T14:48:38.811Z,6.30
2023-05-14T14:51:07.921Z,2.50
2023-05-14T14:53:36.358Z,5.65
2023-05-14T14:56:04.075Z,4.38
2023-05-14T14:58:32.052Z,3.78
2023-05-14T15:00:59.674Z,4.05
2023-05-14T15:03:27.379Z,5.40
2023-05-14T15:05:54.930Z,4.07
2023-05-14T15:08:27.412Z,4.47
2023-05-14T15:10:59.438Z,6.20
2023-05-14T15:13:27.140Z,6.13
2023-05-14T15:15:54.801Z,3.83
2023-05-14T15:18:22.325Z,7.53
2023-05-14T15:20:52.809Z,9.20
2023-05-14T15:23:20.439Z,4.35
2023-05-14T15:25:49.186Z,3.55
2023-05-14T15:28:16.924Z,4.60
2023-05-14T15:30:44.587Z,4.88
2023-05-14T15:33:12.320Z,9.68
2023-05-14T15:35:39.953Z,7.40
2023-05-14T15:38:07.976Z,4.13
2023-05-14T15:40:35.645Z,11.63
2023-05-14T15:43:03.272Z,4.53
2023-05-14T15:45:30.991Z,5.18
2023-05-14T15:47:58.533Z,7.30
2023-05-14T15:50:27.407Z,6.45
2023-05-14T15:52:55.300Z,9.73
2023-05-14T15:55:23.038Z,4.75
2023-05-14T15:57:50.611Z,13.20
2023-05-14T16:00:18.422Z,9.68
2023-05-14T16:02:46.083Z,6.40
2023-05-14T16:05:15.002Z,13.43
2023-05-14T16:07:43.533Z,6.85
2023-05-14T16:10:11.489Z,11.60
2023-05-14T16:12:39.064Z,6.95
2023-05-14T16:15:08.200Z,4.13
2023-05-14T16:17:35.965Z,7.90
2023-05-14T16:20:04.746Z,6.65
2023-05-14T16:22:34.668Z,10.35
2023-05-14T16:25:03.519Z,6.97
2023-05-14T16:27:31.661Z,13.07
2023-05-14T16:29:59.180Z,14.05
2023-05-14T16:32:27.649Z,7.65
2023-05-14T16:34:56.550Z,8.98
2023-05-14T16:37:24.179Z,11.43
2023-05-14T16:39:51.734Z,12.52
2023-05-14T16:42:19.244Z,6.38
2023-05-14T16:44:46.704Z,8.55
2023-05-14T16:47:14.176Z,11.82
2023-05-14T16:49:41.686Z,8.02
2023-05-14T16:52:09.229Z,10.75
2023-05-14T16:54:36.968Z,10.32
2023-05-14T16:57:04.656Z,9.70
2023-05-14T16:59:32.291Z,8.73
2023-05-14T17:02:01.034Z,13.52
2023-05-14T17:04:28.944Z,9.20
2023-05-14T17:06:57.348Z,14.02
2023-05-14T17:09:24.887Z,9.82
2023-05-14T17:11:52.474Z,11.60
2023-05-14T17:14:20.007Z,9.55
2023-05-14T17:16:47.473Z,9.93
2023-05-14T17:19:15.048Z,9.57
2023-05-14T17:21:42.601Z,16.42
2023-05-14T17:24:10.099Z,13.93
2023-05-14T17:26:37.869Z,8.32
2023-05-14T17:29:05.554Z,17.85
2023-05-14T17:31:33.138Z,10.85
2023-05-14T17:34:00.716Z,12.75
2023-05-14T17:36:28.629Z,9.43
2023-05-14T17:38:56.318Z,11.27
2023-05-14T17:41:23.851Z,15.10
2023-05-14T17:43:52.399Z,9.77
2023-05-14T17:46:20.100Z,16.45
2023-05-14T17:48:47.637Z,10.15
2023-05-14T17:51:15.225Z,10.30
2023-05-14T17:53:42.686Z,9.93
2023-05-14T17:56:10.283Z,10.35
2023-05-14T17:58:37.816Z,13.25
2023-05-14T18:01:05.961Z,12.50
2023-05-14T18:03:33.940Z,12.25
2023-05-14T18:06:01.602Z,14.15
2023-05-14T18:08:29.121Z,13.55
2023-05-14T18:10:58.065Z,12.82
2023-05-14T18:13:25.679Z,12.25
2023-05-14T18:15:54.373Z,8.20
2023-05-14T18:18:23.993Z,12.45
2023-05-14T18:20:52.673Z,10.48
2023-05-14T18:23:20.247Z,13.65
2023-05-14T18:25:47.930Z,14.05
2023-05-14T18:28:15.651Z,13.23
2023-05-14T18:30:43.529Z,13.68
2023-05-14T18:33:11.209Z,11.77
2023-05-14T18:35:38.836Z,11.80
2023-05-14T18:38:07.900Z,14.30
2023-05-14T18:40:35.538Z,13.05
2023-05-14T18:43:03.088Z,17.92
2023-05-14T18:45:30.688Z,14.32
2023-05-14T18:47:58.440Z,13.68
2023-05-14T18:50:25.919Z,16.23
2023-05-14T18:52:53.564Z,14.70
2023-05-14T18:55:21.140Z,9.82
2023-05-14T18:57:48.722Z,11.13
2023-05-14T19:00:16.870Z,13.93
2023-05-14T19:02:44.496Z,13.40
2023-05-14T19:05:12.139Z,17.02
2023-05-14T19:07:40.740Z,10.25
2023-05-14T19:10:08.947Z,12.65
2023-05-14T19:12:36.465Z,12.43
2023-05-14T19:15:04.485Z,9.75
2023-05-14T19:17:32.801Z,15.32
2023-05-14T19:20:00.618Z,9.23
2023-05-14T19:22:28.075Z,10.95
2023-05-14T19:24:55.609Z,13.77
2023-05-14T19:27:24.217Z,17.40
2023-05-14T19:29:51.786Z,17.70
2023-05-14T19:32:19.453Z,10.52
2023-05-14T19:34:47.681Z,14.07
2023-05-14T19:37:15.935Z,9.77
2023-05-14T19:39:43.484Z,10.10
2023-05-14T19:42:11.006Z,9.07
2023-05-14T19:44:38.666Z,12.98
2023-05-14T19:47:06.601Z,18.40
2023-05-14T19:49:34.126Z,10.38
2023-05-14T19:52:01.673Z,12.45
2023-05-14T19:54:29.248Z,18.45
2023-05-14T19:56:56.790Z,17.33
2023-05-14T19:59:24.882Z,16.52
2023-05-14T20:01:54.510Z,14.40
2023-05-14T20:04:22.283Z,12.65
2023-05-14T20:06:49.732Z,14.00
2023-05-14T20:09:17.317Z,14.60
2023-05-14T20:11:44.777Z,13.88
2023-05-14T20:14:12.299Z,14.60
2023-05-14T20:16:39.994Z,11.98
2023-05-14T20:19:07.685Z,15.25
2023-05-14T20:21:35.254Z,15.27
2023-05-14T20:24:02.836Z,15.38
2023-05-14T20:26:30.306Z,12.23
2023-05-14T20:28:57.826Z,13.45
2023-05-14T20:31:25.387Z,10.85
2023-05-14T20:33:52.928Z,13.38
2023-05-14T20:36:20.525Z,14.68
2023-05-14T20:38:48.375Z,9.18
2023-05-14T20:41:16.091Z,9.35
2023-05-14T20:43:43.539Z,18.65
2023-05-14T20:46:11.163Z,17.55
2023-05-14T20:48:38.679Z,15.85
2023-05-14T20:51:06.527Z,10.52
2023-05-14T20:53:34.386Z,17.73
2023-05-14T20:56:02.123Z,13.98
2023-05-14T20:58:29.682Z,17.00
2023-05-14T21:00:58.650Z,10.90
2023-05-14T21:03:27.410Z,15.25
2023-05-14T21:05:56.702Z,14.30
2023-05-14T21:08:24.223Z,18.17
2023-05-14T21:10:51.696Z,11.27
2023-05-14T21:13:19.244Z,17.75
2023-05-14T21:15:47.048Z,11.00
2023-05-14T21:18:14.585Z,13.77
2023-05-14T21:20:42.286Z,13.27
2023-05-14T21:23:09.872Z,19.90
2023-05-14T21:25:37.570Z,19.23
2023-05-14T21:28:05.125Z,20.30
2023-05-14T21:30:32.573Z,17.92
2023-05-14T21:33:00.263Z,20.10
2023-05-14T21:35:27.880Z,14.52
2023-05-14T21:37:55.492Z,15.68
2023-05-14T21:40:22.984Z,14.60
2023-05-14T21:42:50.918Z,15.25
2023-05-14T21:45:18.527Z,15.32
2023-05-14T21:47:46.095Z,15.60
2023-05-14T21:50:13.753Z,17.23
2023-05-14T21:52:41.575Z,18.33
2023-05-14T21:55:09.533Z,22.70
2023-05-14T21:57:37.248Z,16.02
2023-05-14T22:00:08.119Z,18.33
2023-05-14T22:02:35.646Z,20.85
2023-05-14T22:05:03.151Z,16.65
2023-05-14T22:07:31.196Z,23.33
2023-05-14T22:09:58.779Z,16.75
2023-05-14T22:12:26.848Z,24.23
2023-05-14T22:14:54.354Z,21.25
2023-05-14T22:17:22.621Z,19.60
2023-05-14T22:19:50.273Z,21.50
2023-05-14T22:22:17.790Z,40.88
2023-05-14T22:24:45.489Z,31.88
2023-05-14T22:27:12.971Z,39.75
2023-05-14T22:29:41.053Z,34.72
2023-05-14T22:32:10.137Z,38.35
2023-05-14T22:34:38.561Z,44.35
2023-05-14T22:37:06.452Z,41.60
2023-05-14T22:39:33.935Z,43.05
2023-05-14T22:42:01.489Z,34.97
2023-05-14T22:44:30.004Z,29.55
2023-05-14T22:46:57.862Z,27.30
2023-05-14T22:49:25.409Z,26.23
2023-05-14T22:51:54.198Z,29.25
2023-05-14T22:54:22.301Z,29.63
2023-05-14T22:56:49.917Z,25.80
2023-05-14T22:59:17.453Z,29.75
2023-05-14T23:01:45.235Z,30.75
2023-05-14T23:04:13.020Z,24.23
2023-05-14T23:06:40.555Z,26.80
2023-05-14T23:09:08.059Z,27.40
2023-05-14T23:11:35.586Z,26.52
2023-05-14T23:14:03.109Z,24.05
2023-05-14T23:16:30.660Z,29.52
2023-05-14T23:18:58.321Z,23.65
2023-05-14T23:21:26.048Z,27.48
2023-05-14T23:23:53.594Z,23.92
2023-05-14T23:26:21.518Z,27.60
2023-05-14T23:28:49.069Z,28.40
2023-05-14T23:31:16.638Z,21.65
2023-05-14T23:33:45.005Z,26.98
2023-05-14T23:36:12.562Z,25.48
2023-05-14T23:38:40.643Z,28.55
2023-05-14T23:41:08.293Z,26.80
2023-05-14T23:43:36.004Z,27.00
2023-05-14T23:46:03.953Z,26.02
2023-05-14T23:48:31.759Z,24.48
2023-05-14T23:50:59.327Z,29.42
2023-05-14T23:53:26.925Z,30.73
2023-05-14T23:55:54.442Z,33.60
2023-05-14T23:58:22.048Z,28.95
